createdAt,value
2023-05-15T00:02:03.410Z,97192.33
2023-05-15T00:04:29.665Z,97190.28
2023-05-15T00:06:56.037Z,97191.70
2023-05-15T00:09:22.351Z,97192.96
2023-05-15T00:11:48.702Z,97187.16
2023-05-15T00:14:14.951Z,97180.53
2023-05-15T00:16:41.309Z,97173.92
2023-05-15T00:19:07.800Z,97170.86
2023-05-15T00:21:34.192Z,97167.68
2023-05-15T00:24:00.437Z,97169.46
2023-05-15T00:26:26.692Z,97165.50
2023-05-15T00:28:52.966Z,97149.52
2023-05-15T00:31:20.297Z,97148.10
2023-05-15T00:33:46.551Z,97159.67
2023-05-15T00:36:12.941Z,97156.79
2023-05-15T00:38:39.210Z,97159.52
2023-05-15T00:41:09.557Z,97149.11
2023-05-15T00:43:38.151Z,97139.36
2023-05-15T00:46:05.903Z,97136.77
2023-05-15T00:48:33.077Z,97132.80
2023-05-15T00:50:59.745Z,97125.91
2023-05-15T00:53:27.019Z,97120.65
2023-05-15T00:55:57.001Z,97114.70
2023-05-15T00:58:24.154Z,97107.55
2023-05-15T01:00:50.542Z,97106.13
2023-05-15T01:03:17.253Z,97105.90
2023-05-15T01:05:44.156Z,97106.02
2023-05-15T01:08:25.941Z,97108.83
2023-05-15T01:10:52.588Z,97100.15
2023-05-15T01:13:22.353Z,97095.06
2023-05-15T01:15:49.234Z,97091.04
2023-05-15T01:18:16.209Z,97094.98
2023-05-15T01:20:45.803Z,97092.00
2023-05-15T01:23:18.152Z,97094.05
2023-05-15T01:25:53.957Z,97095.94
2023-05-15T01:28:28.422Z,97095.45
2023-05-15T01:30:55.322Z,97097.14
2023-05-15T01:33:23.780Z,97093.20
2023-05-15T01:35:55.186Z,97094.19
2023-05-15T01:38:30.027Z,97093.07
2023-05-15T01:40:59.352Z,97086.36
2023-05-15T01:43:27.795Z,97082.29
2023-05-15T01:45:55.406Z,97082.64
2023-05-15T01:48:25.000Z,97081.83
2023-05-15T01:50:54.082Z,97081.71
2023-05-15T01:53:20.343Z,97082.97
2023-05-15T01:55:48.082Z,97081.43
2023-05-15T01:58:15.304Z,97079.83
2023-05-15T02:00:42.170Z,97077.55
2023-05-15T02:03:09.114Z,97069.38
2023-05-15T02:05:35.500Z,97066.55
2023-05-15T02:08:02.703Z,97066.53
2023-05-15T02:10:29.930Z,97065.39
2023-05-15T02:12:56.356Z,97062.53
2023-05-15T02:15:22.617Z,97057.45
2023-05-15T02:17:48.990Z,97057.50
2023-05-15T02:20:15.379Z,97048.65
2023-05-15T02:22:42.606Z,97044.69
2023-05-15T02:25:08.979Z,97038.04
2023-05-15T02:27:55.761Z,97038.79
2023-05-15T02:30:21.981Z,97033.42
2023-05-15T02:32:54.168Z,97031.48
2023-05-15T02:35:26.822Z,97030.96
2023-05-15T02:37:55.825Z,97029.89
2023-05-15T02:40:23.777Z,97025.55
2023-05-15T02:42:51.958Z,97026.48
2023-05-15T02:45:19.196Z,97021.05
2023-05-15T02:47:45.769Z,97014.03
2023-05-15T02:50:12.228Z,97016.01
2023-05-15T02:52:38.640Z,97019.79
2023-05-15T02:55:05.383Z,97015.88
2023-05-15T02:57:31.672Z,97013.38
2023-05-15T02:59:57.992Z,97013.70
2023-05-15T03:02:24.423Z,97010.40
2023-05-15T03:04:51.116Z,97009.98
2023-05-15T03:07:17.429Z,97010.24
2023-05-15T03:09:43.710Z,97010.23
2023-05-15T03:12:10.004Z,97009.23
2023-05-15T03:14:36.354Z,97004.52
2023-05-15T03:17:02.804Z,96996.89
2023-05-15T03:19:29.191Z,96992.55
2023-05-15T03:21:55.551Z,96992.88
2023-05-15T03:24:21.926Z,96990.36
2023-05-15T03:26:48.236Z,96987.42
2023-05-15T03:29:14.505Z,96987.17
2023-05-15T03:31:40.892Z,96989.67
2023-05-15T03:34:07.317Z,96996.33
2023-05-15T03:36:33.650Z,96995.05
2023-05-15T03:38:59.953Z,96992.85
2023-05-15T03:41:26.216Z,96992.65
2023-05-15T03:43:52.488Z,96993.00
2023-05-15T03:46:18.805Z,96995.25
2023-05-15T03:48:45.192Z,96991.88
2023-05-15T03:51:11.500Z,96992.18
2023-05-15T03:53:38.062Z,96983.20
2023-05-15T03:56:04.397Z,96983.84
2023-05-15T03:58:30.617Z,96981.48
2023-05-15T04:00:57.313Z,96978.43
2023-05-15T04:03:23.699Z,96968.38
2023-05-15T04:05:50.046Z,96969.05
2023-05-15T04:08:16.355Z,96969.74
2023-05-15T04:10:42.627Z,96965.88
2023-05-15T04:13:08.921Z,96961.15
2023-05-15T04:15:35.301Z,96959.10
2023-05-15T04:18:01.663Z,96953.59
2023-05-15T04:20:27.896Z,96946.30
2023-05-15T04:22:54.286Z,96943.59
2023-05-15T04:25:20.747Z,96948.23
2023-05-15T04:27:47.102Z,96944.14
2023-05-15T04:30:13.459Z,96941.21
2023-05-15T04:32:40.208Z,96943.70
2023-05-15T04:35:07.143Z,96938.69
2023-05-15T04:37:33.400Z,96935.20
2023-05-15T04:39:59.686Z,96938.05
2023-05-15T04:42:26.086Z,96939.52
2023-05-15T04:44:52.883Z,96934.27
2023-05-15T04:47:19.176Z,96932.36
2023-05-15T04:49:45.475Z,96927.77
2023-05-15T04:52:11.788Z,96919.28
2023-05-15T04:54:38.213Z,96907.48
2023-05-15T04:57:04.625Z,96903.58
2023-05-15T04:59:31.002Z,96892.44
2023-05-15T05:01:57.332Z,96890.30
2023-05-15T05:04:23.737Z,96895.91
2023-05-15T05:06:50.191Z,96900.88
2023-05-15T05:09:17.909Z,96903.39
2023-05-15T05:11:44.181Z,96912.13
2023-05-15T05:14:10.909Z,96920.16
2023-05-15T05:16:37.473Z,96917.44
2023-05-15T05:19:03.931Z,96919.08
2023-05-15T05:21:30.519Z,96918.18
2023-05-15T05:23:56.841Z,96915.52
2023-05-15T05:26:23.230Z,96911.34
2023-05-15T05:28:49.518Z,96910.08
2023-05-15T05:31:15.841Z,96908.70
2023-05-15T05:33:42.179Z,96912.72
2023-05-15T05:36:08.695Z,96913.71
2023-05-15T05:38:35.520Z,96912.55
2023-05-15T05:41:02.010Z,96912.86
2023-05-15T05:43:28.326Z,96909.96
2023-05-15T05:45:54.593Z,96905.79
2023-05-15T05:48:20.953Z,96901.52
2023-05-15T05:50:47.255Z,96893.77
2023-05-15T05:53:13.608Z,96889.73
2023-05-15T05:55:40.188Z,96889.25
2023-05-15T05:58:11.828Z,96887.02
2023-05-15T06:00:44.651Z,96889.41
2023-05-15T06:03:11.293Z,96887.40
2023-05-15T06:05:37.593Z,96888.37
2023-05-15T06:08:04.065Z,96888.05
2023-05-15T06:10:30.319Z,96882.06
2023-05-15T06:12:56.627Z,96871.52
2023-05-15T06:15:23.118Z,96869.73
2023-05-15T06:17:49.680Z,96871.34
2023-05-15T06:20:16.044Z,96874.53
2023-05-15T06:22:42.288Z,96868.90
2023-05-15T06:25:08.707Z,96864.98
2023-05-15T06:27:35.076Z,96862.80
2023-05-15T06:30:01.351Z,96860.87
2023-05-15T06:32:27.716Z,96858.56
2023-05-15T06:34:54.099Z,96857.17
2023-05-15T06:37:20.352Z,96849.45
2023-05-15T06:39:46.635Z,96840.56
2023-05-15T06:42:12.945Z,96834.84
2023-05-15T06:44:40.758Z,96840.59
2023-05-15T06:47:07.136Z,96837.34
2023-05-15T06:49:33.489Z,96842.83
2023-05-15T06:51:59.736Z,96844.98
2023-05-15T06:54:25.991Z,96846.06
2023-05-15T06:56:52.437Z,96845.58
2023-05-15T06:59:18.766Z,96842.17
2023-05-15T07:01:45.060Z,96838.89
2023-05-15T07:04:14.275Z,96838.92
2023-05-15T07:06:40.581Z,96843.50
2023-05-15T07:09:06.825Z,96844.94
2023-05-15T07:11:33.123Z,96850.70
2023-05-15T07:13:59.411Z,96854.98
2023-05-15T07:16:25.707Z,96858.76
2023-05-15T07:18:52.264Z,96856.73
2023-05-15T07:21:18.763Z,96854.70
2023-05-15T07:23:45.090Z,96850.98
2023-05-15T07:26:16.983Z,96848.54
2023-05-15T07:28:46.685Z,96847.70
2023-05-15T07:31:13.025Z,96848.80
2023-05-15T07:33:39.315Z,96847.27
2023-05-15T07:36:06.496Z,96844.40
2023-05-15T07:38:32.850Z,96844.42
2023-05-15T07:40:59.101Z,96845.05
2023-05-15T07:43:25.361Z,96845.06
2023-05-15T07:45:51.734Z,96847.84
2023-05-15T07:48:18.936Z,96853.64
2023-05-15T07:50:45.906Z,96854.89
2023-05-15T07:53:15.411Z,96855.91
2023-05-15T07:55:42.200Z,96856.16
2023-05-15T07:58:08.678Z,96856.88
2023-05-15T08:00:35.181Z,96857.93
2023-05-15T08:03:01.689Z,96858.08
2023-05-15T08:05:28.358Z,96856.77
2023-05-15T08:07:55.596Z,96853.73
2023-05-15T08:10:21.965Z,96855.55
2023-05-15T08:12:48.743Z,96857.93
2023-05-15T08:15:15.427Z,96856.64
2023-05-15T08:17:41.989Z,96862.98
2023-05-15T08:20:08.970Z,96867.08
2023-05-15T08:22:35.398Z,96870.48
2023-05-15T08:25:03.389Z,96868.43
2023-05-15T08:27:32.747Z,96866.65
2023-05-15T08:29:59.383Z,96867.73
2023-05-15T08:36:52.527Z,96874.33
2023-05-15T08:43:05.926Z,96881.15
2023-05-15T08:45:34.933Z,96877.23
2023-05-15T08:46:09.868Z,96877.48
2023-05-15T08:48:04.934Z,96881.10
2023-05-15T08:50:31.495Z,96879.31
2023-05-15T08:52:57.942Z,96878.34
2023-05-15T08:55:24.797Z,96880.83
2023-05-15T08:57:51.351Z,96879.88
2023-05-15T09:00:18.326Z,96874.32
2023-05-15T09:02:44.777Z,96871.73
2023-05-15T09:05:11.237Z,96871.12
2023-05-15T09:07:38.084Z,96875.02
2023-05-15T09:10:04.927Z,96874.79
2023-05-15T09:12:33.513Z,96874.70
2023-05-15T09:15:13.571Z,96880.32
2023-05-15T09:17:40.031Z,96881.18
2023-05-15T09:20:06.807Z,96880.75
2023-05-15T09:22:34.030Z,96883.67
2023-05-15T09:25:00.446Z,96890.27
2023-05-15T09:27:26.840Z,96893.67
2023-05-15T09:29:53.255Z,96888.39
2023-05-15T09:32:19.767Z,96884.48
2023-05-15T09:34:48.126Z,96879.70
2023-05-15T09:37:32.589Z,96881.01
2023-05-15T09:40:09.570Z,96884.94
2023-05-15T09:42:36.285Z,96882.88
2023-05-15T09:55:53.550Z,96889.88
2023-05-15T09:58:20.060Z,96897.33
2023-05-15T10:00:48.424Z,96903.38
2023-05-15T10:03:19.053Z,96904.80
2023-05-15T10:05:45.619Z,96906.76
2023-05-15T10:08:11.997Z,96907.34
2023-05-15T10:10:38.358Z,96905.99
2023-05-15T10:13:06.358Z,96908.75
2023-05-15T10:15:33.330Z,96912.41
2023-05-15T10:17:59.675Z,96918.94
2023-05-15T10:20:26.204Z,96921.89
2023-05-15T10:22:54.260Z,96916.52
2023-05-15T10:25:32.530Z,96918.75
2023-05-15T10:27:59.088Z,96916.61
2023-05-15T10:30:26.127Z,96919.56
2023-05-15T10:32:53.187Z,96918.63
2023-05-15T10:35:20.730Z,96921.23
2023-05-15T10:37:47.802Z,96927.23
2023-05-15T10:40:15.082Z,96927.70
2023-05-15T10:42:42.114Z,96923.95
2023-05-15T10:45:09.151Z,96921.64
2023-05-15T10:47:36.534Z,96919.55
2023-05-15T10:50:04.416Z,96921.29
2023-05-15T10:52:31.762Z,96928.26
2023-05-15T10:54:58.361Z,96927.80
2023-05-15T10:57:24.739Z,96919.95
2023-05-15T10:59:51.320Z,96911.61
2023-05-15T11:02:29.263Z,96914.90
2023-05-15T11:08:16.429Z,96909.58
2023-05-15T11:10:42.826Z,96911.16
2023-05-15T11:13:09.211Z,96902.02
2023-05-15T11:15:42.579Z,96896.40
2023-05-15T11:18:09.117Z,96896.79
2023-05-15T11:20:39.704Z,96890.05
2023-05-15T11:23:06.220Z,96893.41
2023-05-15T11:25:34.198Z,96897.42
2023-05-15T11:28:02.348Z,96895.36
2023-05-15T11:30:36.086Z,96889.02
2023-05-15T11:33:06.866Z,96884.28
2023-05-15T11:35:36.478Z,96880.36
2023-05-15T11:38:04.122Z,96881.55
2023-05-15T11:40:31.778Z,96880.17
2023-05-15T11:42:58.748Z,96884.32
2023-05-15T11:45:25.117Z,96881.77
2023-05-15T11:47:51.467Z,96878.91
2023-05-15T11:50:21.474Z,96874.04
2023-05-15T11:52:48.612Z,96877.41
2023-05-15T11:55:15.610Z,96879.28
2023-05-15T11:57:41.942Z,96882.02
2023-05-15T12:00:08.610Z,96883.16
2023-05-15T12:02:35.984Z,96887.30
2023-05-15T12:05:02.553Z,96889.91
2023-05-15T12:07:29.004Z,96884.89
2023-05-15T12:09:55.426Z,96880.66
2023-05-15T12:12:21.815Z,96877.68
2023-05-15T12:14:48.162Z,96876.46
2023-05-15T12:17:14.458Z,96878.83
2023-05-15T12:19:41.753Z,96885.57
2023-05-15T12:22:08.286Z,96884.41
2023-05-15T12:24:36.976Z,96873.96
2023-05-15T12:31:25.857Z,96877.77
2023-05-15T12:40:21.667Z,96860.05
2023-05-15T12:42:19.190Z,96868.42
2023-05-15T12:44:45.721Z,96866.95
2023-05-15T12:47:15.030Z,96869.30
2023-05-15T12:49:41.737Z,96870.75
2023-05-15T12:52:14.407Z,96870.35
2023-05-15T12:54:40.669Z,96871.16
2023-05-15T12:57:10.620Z,96874.75
2023-05-15T12:59:38.119Z,96876.14
2023-05-15T13:02:05.479Z,96877.81
2023-05-15T13:04:33.034Z,96876.51
2023-05-15T13:06:59.398Z,96872.89
2023-05-15T13:09:25.851Z,96877.98
2023-05-15T13:11:54.459Z,96878.83
2023-05-15T13:14:21.088Z,96874.58
2023-05-15T13:16:47.373Z,96869.70
2023-05-15T13:19:13.910Z,96868.98
2023-05-15T13:21:43.450Z,96874.48
2023-05-15T13:24:09.931Z,96872.55
2023-05-15T13:26:36.568Z,96860.48
2023-05-15T13:29:02.832Z,96857.48
2023-05-15T13:31:29.637Z,96854.83
2023-05-15T13:33:56.216Z,96858.51
2023-05-15T13:36:22.560Z,96866.59
2023-05-15T13:38:48.890Z,96867.88
2023-05-15T13:41:15.280Z,96865.11
2023-05-15T13:43:41.525Z,96865.61
2023-05-15T13:46:07.833Z,96868.56
2023-05-15T13:48:34.199Z,96863.70
2023-05-15T13:51:00.482Z,96866.34
2023-05-15T13:53:26.777Z,96860.35
2023-05-15T13:55:53.147Z,96868.96
2023-05-15T13:58:19.447Z,96871.49
2023-05-15T14:00:46.102Z,96869.64
2023-05-15T14:03:15.256Z,96867.78
2023-05-15T14:05:42.214Z,96867.04
2023-05-15T14:08:08.550Z,96865.94
2023-05-15T14:10:38.062Z,96865.30
2023-05-15T14:23:50.023Z,96866.66
2023-05-15T14:26:46.688Z,96868.84
2023-05-15T14:29:58.963Z,96873.71
2023-05-15T14:42:53.713Z,96873.53
2023-05-15T14:45:53.866Z,96877.92
2023-05-15T14:48:20.419Z,96873.55
2023-05-15T14:50:46.815Z,96871.55
2023-05-15T14:53:13.233Z,96871.80
2023-05-15T14:55:39.657Z,96873.38
2023-05-15T14:58:05.985Z,96873.25
2023-05-15T15:00:32.286Z,96873.93
2023-05-15T15:02:58.796Z,96869.52
2023-05-15T15:05:25.172Z,96866.21
2023-05-15T15:07:57.800Z,96862.08
2023-05-15T15:10:24.316Z,96866.17
2023-05-15T15:12:51.015Z,96864.19
2023-05-15T15:15:18.021Z,96861.39
2023-05-15T15:17:44.330Z,96862.65
2023-05-15T15:20:10.822Z,96861.69
2023-05-15T15:22:37.444Z,96862.86
2023-05-15T15:25:03.944Z,96865.77
2023-05-15T15:27:33.593Z,96866.07
2023-05-15T15:29:59.942Z,96864.51
2023-05-15T15:32:26.367Z,96865.95
2023-05-15T15:34:52.708Z,96863.28
2023-05-15T15:37:19.118Z,96863.87
2023-05-15T15:39:45.379Z,96866.39
2023-05-15T15:42:11.767Z,96869.02
2023-05-15T15:44:38.076Z,96871.17
2023-05-15T15:47:04.374Z,96881.29
2023-05-15T15:49:30.691Z,96879.57
2023-05-15T15:51:57.204Z,96873.57
2023-05-15T15:54:23.551Z,96874.95
2023-05-15T15:56:50.886Z,96876.58
2023-05-15T15:59:17.247Z,96875.98
2023-05-15T16:01:43.749Z,96878.35
2023-05-15T16:04:10.226Z,96876.14
2023-05-15T16:06:36.781Z,96877.39
2023-05-15T16:09:03.368Z,96879.33
2023-05-15T16:11:29.714Z,96879.24
2023-05-15T16:13:56.101Z,96881.36
2023-05-15T16:16:22.703Z,96884.64
2023-05-15T16:18:49.358Z,96887.09
2023-05-15T16:21:15.631Z,96890.08
2023-05-15T16:23:41.978Z,96890.83
2023-05-15T16:26:08.874Z,96886.39
2023-05-15T16:28:35.257Z,96891.92
2023-05-15T16:31:02.033Z,96897.48
2023-05-15T16:33:29.301Z,96895.48
2023-05-15T16:35:55.843Z,96897.30
2023-05-15T16:38:22.304Z,96904.96
2023-05-15T16:40:49.699Z,96905.64
2023-05-15T16:43:16.020Z,96913.30
2023-05-15T16:45:42.731Z,96910.92
2023-05-15T16:48:09.218Z,96915.16
2023-05-15T16:50:35.913Z,96922.54
2023-05-15T16:53:02.790Z,96922.77
2023-05-15T16:55:29.898Z,96926.03
2023-05-15T16:57:56.236Z,96926.48
2023-05-15T17:00:22.668Z,96925.26
2023-05-15T17:02:49.435Z,96929.12
2023-05-15T17:05:15.779Z,96928.69
2023-05-15T17:07:42.819Z,96925.45
2023-05-15T17:10:10.055Z,96924.48
2023-05-15T17:12:36.712Z,96919.84
2023-05-15T17:15:03.454Z,96921.80
2023-05-15T17:17:29.912Z,96924.33
2023-05-15T17:19:56.363Z,96923.75
2023-05-15T17:22:23.251Z,96935.46
2023-05-15T17:24:51.914Z,96932.47
2023-05-15T17:27:19.015Z,96938.75
2023-05-15T17:29:45.923Z,96947.38
2023-05-15T17:32:12.697Z,96951.52
2023-05-15T17:34:39.215Z,96956.27
2023-05-15T17:37:05.573Z,96955.00
2023-05-15T17:39:31.847Z,96960.48
2023-05-15T17:41:58.115Z,96963.48
2023-05-15T17:44:24.469Z,96969.98
2023-05-15T17:46:50.892Z,96965.23
2023-05-15T17:49:17.176Z,96966.15
2023-05-15T17:51:43.593Z,96964.02
2023-05-15T17:54:09.930Z,96965.33
2023-05-15T17:56:36.236Z,96967.50
2023-05-15T17:59:02.679Z,96969.52
2023-05-15T18:01:29.334Z,96974.19
2023-05-15T18:03:55.683Z,96978.60
2023-05-15T18:06:22.175Z,96989.48
2023-05-15T18:08:48.558Z,96987.42
2023-05-15T18:11:22.545Z,96990.03
2023-05-15T18:13:49.505Z,96996.85
2023-05-15T18:16:15.895Z,96995.14
2023-05-15T18:18:42.431Z,96999.39
2023-05-15T18:21:08.924Z,97006.74
2023-05-15T18:23:35.312Z,97012.02
2023-05-15T18:26:01.644Z,97015.00
2023-05-15T18:28:29.554Z,97017.44
2023-05-15T18:30:57.036Z,97022.73
2023-05-15T18:33:23.361Z,97025.05
2023-05-15T18:35:49.693Z,97031.79
2023-05-15T18:38:15.980Z,97033.52
2023-05-15T18:40:45.172Z,97035.56
2023-05-15T18:43:11.541Z,97037.05
2023-05-15T18:45:38.014Z,97044.39
2023-05-15T18:48:04.713Z,97047.80
2023-05-15T18:50:31.128Z,97046.27
2023-05-15T18:52:57.441Z,97052.03
2023-05-15T18:55:24.001Z,97056.04
2023-05-15T18:57:50.375Z,97061.06
2023-05-15T19:00:26.622Z,97060.34
2023-05-15T19:03:03.277Z,97067.33
2023-05-15T19:05:29.636Z,97078.36
2023-05-15T19:07:55.953Z,97081.48
2023-05-15T19:10:22.311Z,97086.08
2023-05-15T19:12:49.075Z,97090.23
2023-05-15T19:15:15.460Z,97094.91
2023-05-15T19:17:41.784Z,97097.71
2023-05-15T19:20:08.342Z,97095.33
2023-05-15T19:22:34.796Z,97095.74
2023-05-15T19:25:01.159Z,97099.02
2023-05-15T19:27:27.534Z,97103.83
2023-05-15T19:29:53.814Z,97105.77
2023-05-15T19:32:20.298Z,97108.05
2023-05-15T19:34:46.696Z,97109.90
2023-05-15T19:37:13.053Z,97108.64
2023-05-15T19:39:39.336Z,97114.58
2023-05-15T19:42:05.824Z,97111.33
2023-05-15T19:44:32.209Z,97106.84
2023-05-15T19:46:58.709Z,97107.15
2023-05-15T19:49:25.099Z,97106.05
2023-05-15T19:51:51.456Z,97104.10
2023-05-15T19:54:17.822Z,97105.77
2023-05-15T19:56:44.133Z,97109.32
2023-05-15T19:59:11.728Z,97107.88
2023-05-15T20:01:38.199Z,97106.52
2023-05-15T20:04:04.622Z,97105.15
2023-05-15T20:06:31.015Z,97104.46
2023-05-15T20:08:57.305Z,97105.69
2023-05-15T20:11:23.683Z,97103.11
2023-05-15T20:13:50.224Z,97105.31
2023-05-15T20:16:18.879Z,97105.02
2023-05-15T20:18:45.655Z,97103.33
2023-05-15T20:21:11.991Z,97108.24
2023-05-15T20:23:38.281Z,97105.66
2023-05-15T20:26:04.595Z,97111.74
2023-05-15T20:28:31.012Z,97113.46
2023-05-15T20:30:57.341Z,97110.52
2023-05-15T20:33:24.016Z,97110.88
2023-05-15T20:35:50.309Z,97107.55
2023-05-15T20:38:16.874Z,97102.91
2023-05-15T20:40:43.225Z,97106.13
2023-05-15T20:43:09.561Z,97112.39
2023-05-15T20:45:36.029Z,97113.31
2023-05-15T20:48:04.999Z,97115.75
2023-05-15T20:50:31.443Z,97122.58
2023-05-15T20:52:57.756Z,97125.02
2023-05-15T20:55:25.712Z,97127.70
2023-05-15T20:57:52.103Z,97128.42
2023-05-15T21:00:18.588Z,97129.17
2023-05-15T21:02:45.474Z,97127.14
2023-05-15T21:05:12.170Z,97125.64
2023-05-15T21:07:38.598Z,97129.75
2023-05-15T21:10:05.574Z,97129.14
2023-05-15T21:12:31.853Z,97133.12
2023-05-15T21:14:58.255Z,97136.48
2023-05-15T21:17:24.590Z,97138.14
2023-05-15T21:19:50.925Z,97138.58
2023-05-15T21:22:17.249Z,97139.91
2023-05-15T21:24:43.760Z,97140.83
2023-05-15T21:27:10.016Z,97144.49
2023-05-15T21:29:36.348Z,97144.29
2023-05-15T21:32:04.699Z,97143.70
2023-05-15T21:34:31.012Z,97144.88
2023-05-15T21:36:57.293Z,97142.92
2023-05-15T21:39:23.537Z,97146.88
2023-05-15T21:41:49.978Z,97146.77
2023-05-15T21:44:16.425Z,97145.22
2023-05-15T21:46:42.713Z,97142.80
2023-05-15T21:49:09.278Z,97142.09
2023-05-15T21:51:35.593Z,97141.50
2023-05-15T21:54:01.870Z,97145.16
2023-05-15T21:56:28.375Z,97145.28
2023-05-15T21:58:56.125Z,97152.08
2023-05-15T22:01:23.523Z,97156.92
2023-05-15T22:03:49.936Z,97157.30
2023-05-15T22:06:16.304Z,97154.75
2023-05-15T22:08:42.543Z,97153.75
2023-05-15T22:11:08.807Z,97152.64
2023-05-15T22:13:35.162Z,97155.54
2023-05-15T22:16:01.802Z,97155.84
2023-05-15T22:18:28.133Z,97154.03
2023-05-15T22:20:54.496Z,97154.52
2023-05-15T22:23:20.755Z,97154.98
2023-05-15T22:25:46.976Z,97154.55
2023-05-15T22:28:13.271Z,97158.30
2023-05-15T22:30:39.548Z,97161.30
2023-05-15T22:33:05.830Z,97164.65
2023-05-15T22:35:32.153Z,97166.33
2023-05-15T22:37:58.388Z,97172.15
2023-05-15T22:40:24.768Z,97169.40
2023-05-15T22:42:51.327Z,97166.92
2023-05-15T22:45:18.689Z,97168.45
2023-05-15T22:47:45.640Z,97167.26
2023-05-15T22:50:12.052Z,97167.30
2023-05-15T22:52:38.351Z,97166.95
2023-05-15T22:55:04.940Z,97166.05
2023-05-15T22:57:31.390Z,97166.17
2023-05-15T22:59:57.699Z,97173.17
2023-05-15T23:02:24.073Z,97175.92
2023-05-15T23:04:50.410Z,97177.06
2023-05-15T23:07:16.624Z,97177.66
2023-05-15T23:09:43.251Z,97174.75
2023-05-15T23:12:09.535Z,97171.80
2023-05-15T23:14:35.843Z,97177.52
2023-05-15T23:17:02.835Z,97169.23
2023-05-15T23:19:29.091Z,97167.78
2023-05-15T23:21:55.358Z,97166.98
2023-05-15T23:24:21.665Z,97168.34
2023-05-15T23:26:47.909Z,97171.45
2023-05-15T23:29:14.161Z,97176.89
2023-05-15T23:31:40.517Z,97175.16
2023-05-15T23:34:06.860Z,97175.20
2023-05-15T23:36:33.121Z,97182.31
2023-05-15T23:38:59.344Z,97184.60
2023-05-15T23:41:25.557Z,97181.11
2023-05-15T23:43:51.808Z,97188.35
2023-05-15T23:46:18.216Z,97185.03
2023-05-15T23:48:44.601Z,97185.73
2023-05-15T23:51:10.823Z,97185.88
2023-05-15T23:53:37.222Z,97185.14
2023-05-15T23:56:03.900Z,97189.00
2023-05-15T23:58:30.169Z,97191.33
